Haden II — WDF2064 — position and weather

sailwx.info

Track history (hours):
 
Tides and Currents Weather Stations Pressure Air Temp Water Temp Dewpoint Dewpoint Depression Visibility Wind Speed Wind Dir Waves Ship Positions

Haden II

Owner: G & H Towing Company, Galveston, TX. More information available from US FCC via Universal Licensing System and Coast Guard Vessel Documentation Center.

Last reported at 2018-Jun-23 07:44 UTC. Time now 2018-Jun-23 12:25 UTC.
Position N 29°44' W 095°07'.

Length 27 m; draft 4 m.

Type: Sailing vessel. MMSI: 365327268.

Date/timePositionNaut miles runAvg speedWind from/ knotsBaromVisibWave heightAir tempDewpointWater temp
2018-Jun-23 07:44N 29°44' W 095°07'0 0.0
2018-Jun-23 07:26N 29°44' W 095°07'0 0.0
2018-Jun-23 06:56N 29°44' W 095°07'0 0.0
2018-Jun-23 06:30N 29°44' W 095°07'1 0.9
2018-Jun-23 05:49N 29°45' W 095°06'0 1.1
2018-Jun-23 05:26N 29°45' W 095°06'0 0.4
2018-Jun-23 05:00N 29°45' W 095°06'1 1.7
2018-Jun-23 04:13N 29°44' W 095°07'0 0.0
2018-Jun-22 06:11N 29°44' W 095°07'1 4.7
2018-Jun-22 05:58N 29°44' W 095°08'0 0.0
2018-Jun-22 05:30N 29°44' W 095°08'0 0.4
2018-Jun-22 04:59N 29°44' W 095°08'1 1.9
2018-Jun-22 04:30N 29°44' W 095°07'0 0.0
2018-Jun-22 03:56N 29°44' W 095°07'5 0.4
2018-Jun-21 15:24N 29°42' W 095°01'5 0.5
2018-Jun-21 05:49N 29°44' W 095°07'0 0.4
2018-Jun-21 05:26N 29°44' W 095°07'6 0.2
2018-Jun-20 00:05N 29°42' W 095°01'2 9.4
2018-Jun-19 23:56N 29°42' W 094°59'1 2.1
2018-Jun-19 23:30N 29°41' W 095°00'0 0.1
2018-Jun-19 23:00N 29°41' W 095°00'1 1.4
2018-Jun-19 22:21N 29°41' W 094°59'2 0.4
2018-Jun-19 16:41N 29°42' W 095°01'2 6.4
2018-Jun-19 16:25N 29°42' W 094°59'1 2.6
2018-Jun-19 15:59N 29°41' W 095°01'0 0.1
2018-Jun-19 15:27N 29°41' W 095°00'1 0.0
2018-Jun-18 14:56N 29°42' W 094°59'1 2.6
2018-Jun-18 14:28N 29°41' W 095°01'1 2.3
2018-Jun-18 14:00N 29°41' W 094°59'  
2018-Jun-16 01:24N 29°42' W 094°59'1 2.5
2018-Jun-16 00:55N 29°41' W 095°01'0 0.0
2018-Jun-16 00:30N 29°41' W 095°01'1 2.7
2018-Jun-16 00:00N 29°41' W 094°59'0 0.7
2018-Jun-15 23:29N 29°41' W 094°59'2 2.5
2018-Jun-15 22:49N 29°40' W 094°58'3 8.7
2018-Jun-15 22:30N 29°37' W 094°58'3 6.5
2018-Jun-15 22:00N 29°37' W 095°01'0 0.0
2018-Jun-15 21:30N 29°37' W 095°01'1 1.0
2018-Jun-15 21:00N 29°37' W 095°01'1 1.0
2018-Jun-15 20:25N 29°37' W 095°02'0 0.0
2018-Jun-15 19:01N 29°37' W 095°02'0 0.0
2018-Jun-15 18:43N 29°37' W 095°02'0 0.0
2018-Jun-15 18:22N 29°37' W 095°02'0 0.0
2018-Jun-15 17:58N 29°37' W 095°02'0 0.0
2018-Jun-15 17:16N 29°37' W 095°02'0 1.1
2018-Jun-15 17:00N 29°37' W 095°01'0 0.6
2018-Jun-15 16:30N 29°37' W 095°02'0 0.0
2018-Jun-15 16:00N 29°37' W 095°02'0 0.1
2018-Jun-15 15:30N 29°37' W 095°02'0 0.0
2018-Jun-15 14:52N 29°37' W 095°02'0 0.9
2018-Jun-15 14:24N 29°37' W 095°01'0 0.9
2018-Jun-15 13:58N 29°37' W 095°02'0 0.0
2018-Jun-15 13:19N 29°37' W 095°02'0 0.0
2018-Jun-15 12:58N 29°37' W 095°02'0 0.8
2018-Jun-15 12:30N 29°37' W 095°01'0 0.0
2018-Jun-15 12:00N 29°37' W 095°01'0 0.0
2018-Jun-15 11:31N 29°37' W 095°01'0 0.7
2018-Jun-15 11:00N 29°37' W 095°01'0 0.0
2018-Jun-15 10:30N 29°37' W 095°01'0 0.0
2018-Jun-15 09:54N 29°37' W 095°01'0 1.0
2018-Jun-15 09:31N 29°37' W 095°01'0 0.0
2018-Jun-15 09:01N 29°37' W 095°01'0 0.0
2018-Jun-15 08:30N 29°37' W 095°01'0 0.0
2018-Jun-15 07:57N 29°37' W 095°01'0 0.0
2018-Jun-15 07:27N 29°37' W 095°01'0 0.0
2018-Jun-15 07:00N 29°37' W 095°01'0 0.0
2018-Jun-15 06:21N 29°37' W 095°01'0 0.0
2018-Jun-15 06:00N 29°37' W 095°01'0 0.0
2018-Jun-15 05:27N 29°37' W 095°01'0 0.0
2018-Jun-15 05:00N 29°37' W 095°01'0 0.0
2018-Jun-15 04:30N 29°37' W 095°01'0 0.0
2018-Jun-15 03:57N 29°37' W 095°01'0 0.0
2018-Jun-15 03:30N 29°37' W 095°01'0 0.6
2018-Jun-15 03:00N 29°37' W 095°01'0 0.3
2018-Jun-15 02:29N 29°37' W 095°01'0 0.0
2018-Jun-15 02:00N 29°37' W 095°01'0 0.4
2018-Jun-15 01:28N 29°37' W 095°02'0 0.0
2018-Jun-15 00:58N 29°37' W 095°02'0 0.0
2018-Jun-15 00:28N 29°37' W 095°02'0 0.0
2018-Jun-15 00:01N 29°37' W 095°02'0 0.0
2018-Jun-14 23:31N 29°37' W 095°02'0 0.0
2018-Jun-14 23:01N 29°37' W 095°02'0 0.0
2018-Jun-14 22:30N 29°37' W 095°02'0 0.0
2018-Jun-14 22:00N 29°37' W 095°02'0 0.0
2018-Jun-14 21:30N 29°37' W 095°02'0 0.6
2018-Jun-14 20:59N 29°37' W 095°01'1 1.5
2018-Jun-14 20:26N 29°37' W 095°00'1 1.6
2018-Jun-14 19:52N 29°37' W 095°02'0 0.0
2018-Jun-14 19:25N 29°37' W 095°02'0 0.8
2018-Jun-14 19:00N 29°37' W 095°01'0 0.0
2018-Jun-14 18:30N 29°37' W 095°01'0 0.1
2018-Jun-14 18:00N 29°37' W 095°01'0 0.7
2018-Jun-14 17:29N 29°37' W 095°01'0 0.0
2018-Jun-14 16:55N 29°37' W 095°01'0 0.0
2018-Jun-14 16:25N 29°37' W 095°01'0 0.0
2018-Jun-14 15:55N 29°37' W 095°01'0 0.0
2018-Jun-14 15:28N 29°37' W 095°01'0 0.0
2018-Jun-14 14:58N 29°37' W 095°01'0 0.0
2018-Jun-14 14:28N 29°37' W 095°01'0 0.0
2018-Jun-14 13:57N 29°37' W 095°01'4 7.7
2018-Jun-14 13:26N 29°36' W 094°57'810.8
2018-Jun-14 12:44N 29°30' W 094°52'711.9
2018-Jun-14 12:06N 29°23' W 094°48'112.0
2018-Jun-14 11:59N 29°22' W 094°48'3 5.3
2018-Jun-14 11:30N 29°19' W 094°47'1 1.6
2018-Jun-14 10:43N 29°20' W 094°46'1 1.6
2018-Jun-14 09:50N 29°19' W 094°47'3 7.3
2018-Jun-14 09:30N 29°21' W 094°48'13 9.5
2018-Jun-14 08:07N 29°33' W 094°55'1 9.9
2018-Jun-14 07:59N 29°34' W 094°55'4 8.2
2018-Jun-14 07:30N 29°37' W 094°59'2 3.5
2018-Jun-14 06:56N 29°37' W 095°01'0 0.0
2018-Jun-14 06:20N 29°37' W 095°01'0 0.0
2018-Jun-14 05:50N 29°37' W 095°01'0 0.0
2018-Jun-14 05:26N 29°37' W 095°01'0 0.0
2018-Jun-14 04:56N 29°37' W 095°01'0 0.9
2018-Jun-14 04:30N 29°37' W 095°02'0 0.1
2018-Jun-14 03:59N 29°37' W 095°02'1 1.5
2018-Jun-14 03:29N 29°37' W 095°01'1 1.2
2018-Jun-14 02:53N 29°36' W 095°01'0 0.0
2018-Jun-14 02:29N 29°36' W 095°01'0 0.0
2018-Jun-14 01:44N 29°36' W 095°01'0 0.0
2018-Jun-14 01:23N 29°36' W 095°01'0 0.0
2018-Jun-14 00:59N 29°36' W 095°01'0 0.0
2018-Jun-14 00:19N 29°36' W 095°01'0 0.3
2018-Jun-14 00:00N 29°37' W 095°01'1 1.1
2018-Jun-13 23:30N 29°37' W 095°01'0 0.7
2018-Jun-13 22:55N 29°37' W 095°00'0 0.0
2018-Jun-13 22:28N 29°37' W 095°00'0 0.0
2018-Jun-13 21:58N 29°37' W 095°00'3 5.6
2018-Jun-13 21:25N 29°36' W 094°57'1610.3
2018-Jun-13 19:51N 29°22' W 094°48'3 7.0
2018-Jun-13 19:26N 29°19' W 094°47'0 0.0
2018-Jun-13 19:00N 29°19' W 094°47'0 0.0
2018-Jun-13 18:30N 29°19' W 094°47'0 0.0
2018-Jun-13 18:00N 29°19' W 094°47'0 0.0
2018-Jun-13 17:30N 29°19' W 094°47'0 0.0
2018-Jun-13 17:00N 29°19' W 094°47'0 0.0
2018-Jun-13 16:30N 29°19' W 094°47'0 0.0
2018-Jun-13 16:00N 29°19' W 094°47'1 1.3
2018-Jun-13 15:30N 29°19' W 094°48'0 0.0
2018-Jun-13 14:58N 29°19' W 094°48'0 0.0
2018-Jun-13 14:22N 29°19' W 094°48'0 0.0
2018-Jun-13 14:00N 29°19' W 094°48'0 0.1
2018-Jun-13 13:27N 29°19' W 094°48'1 2.6
2018-Jun-13 13:00N 29°20' W 094°47'4 8.3
2018-Jun-13 12:30N 29°23' W 094°49'11 9.6
2018-Jun-13 11:21N 29°33' W 094°55'4 9.3
2018-Jun-13 10:56N 29°36' W 094°57'5 9.1
2018-Jun-13 10:21N 29°41' W 094°59'  
Track history (hours):
 
Tides and Currents Weather Stations Pressure Air Temp Water Temp Dewpoint Dewpoint Depression Visibility Wind Speed Wind Dir Waves Ship Positions

Haden II

Owner: G & H Towing Company, Galveston, TX. More information available from US FCC via Universal Licensing System and Coast Guard Vessel Documentation Center.

Last reported at 2018-Jun-23 07:44 UTC. Time now 2018-Jun-23 12:25 UTC.
Position N 29°44' W 095°07'.

Length 27 m; draft 4 m.

Type: Sailing vessel. MMSI: 365327268.

Date/timePositionNaut miles runAvg speedWind from/ knotsBaromVisibWave heightAir tempDewpointWater temp
2018-Jun-23 07:44N 29°44' W 095°07'0 0.0
2018-Jun-23 07:26N 29°44' W 095°07'0 0.0
2018-Jun-23 06:56N 29°44' W 095°07'0 0.0
2018-Jun-23 06:30N 29°44' W 095°07'1 0.9
2018-Jun-23 05:49N 29°45' W 095°06'0 1.1
2018-Jun-23 05:26N 29°45' W 095°06'0 0.4
2018-Jun-23 05:00N 29°45' W 095°06'1 1.7
2018-Jun-23 04:13N 29°44' W 095°07'0 0.0
2018-Jun-22 06:11N 29°44' W 095°07'1 4.7
2018-Jun-22 05:58N 29°44' W 095°08'0 0.0
2018-Jun-22 05:30N 29°44' W 095°08'0 0.4
2018-Jun-22 04:59N 29°44' W 095°08'1 1.9
2018-Jun-22 04:30N 29°44' W 095°07'0 0.0
2018-Jun-22 03:56N 29°44' W 095°07'5 0.4
2018-Jun-21 15:24N 29°42' W 095°01'5 0.5
2018-Jun-21 05:49N 29°44' W 095°07'0 0.4
2018-Jun-21 05:26N 29°44' W 095°07'6 0.2
2018-Jun-20 00:05N 29°42' W 095°01'2 9.4
2018-Jun-19 23:56N 29°42' W 094°59'1 2.1
2018-Jun-19 23:30N 29°41' W 095°00'0 0.1
2018-Jun-19 23:00N 29°41' W 095°00'1 1.4
2018-Jun-19 22:21N 29°41' W 094°59'2 0.4
2018-Jun-19 16:41N 29°42' W 095°01'2 6.4
2018-Jun-19 16:25N 29°42' W 094°59'1 2.6
2018-Jun-19 15:59N 29°41' W 095°01'0 0.1
2018-Jun-19 15:27N 29°41' W 095°00'1 0.0
2018-Jun-18 14:56N 29°42' W 094°59'1 2.6
2018-Jun-18 14:28N 29°41' W 095°01'1 2.3
2018-Jun-18 14:00N 29°41' W 094°59'  
2018-Jun-16 01:24N 29°42' W 094°59'1 2.5
2018-Jun-16 00:55N 29°41' W 095°01'0 0.0
2018-Jun-16 00:30N 29°41' W 095°01'1 2.7
2018-Jun-16 00:00N 29°41' W 094°59'0 0.7
2018-Jun-15 23:29N 29°41' W 094°59'2 2.5
2018-Jun-15 22:49N 29°40' W 094°58'3 8.7
2018-Jun-15 22:30N 29°37' W 094°58'3 6.5
2018-Jun-15 22:00N 29°37' W 095°01'0 0.0
2018-Jun-15 21:30N 29°37' W 095°01'1 1.0
2018-Jun-15 21:00N 29°37' W 095°01'1 1.0
2018-Jun-15 20:25N 29°37' W 095°02'0 0.0
2018-Jun-15 19:01N 29°37' W 095°02'0 0.0
2018-Jun-15 18:43N 29°37' W 095°02'0 0.0
2018-Jun-15 18:22N 29°37' W 095°02'0 0.0
2018-Jun-15 17:58N 29°37' W 095°02'0 0.0
2018-Jun-15 17:16N 29°37' W 095°02'0 1.1
2018-Jun-15 17:00N 29°37' W 095°01'0 0.6
2018-Jun-15 16:30N 29°37' W 095°02'0 0.0
2018-Jun-15 16:00N 29°37' W 095°02'0 0.1
2018-Jun-15 15:30N 29°37' W 095°02'0 0.0
2018-Jun-15 14:52N 29°37' W 095°02'0 0.9
2018-Jun-15 14:24N 29°37' W 095°01'0 0.9
2018-Jun-15 13:58N 29°37' W 095°02'0 0.0
2018-Jun-15 13:19N 29°37' W 095°02'0 0.0
2018-Jun-15 12:58N 29°37' W 095°02'0 0.8
2018-Jun-15 12:30N 29°37' W 095°01'0 0.0
2018-Jun-15 12:00N 29°37' W 095°01'0 0.0
2018-Jun-15 11:31N 29°37' W 095°01'0 0.7
2018-Jun-15 11:00N 29°37' W 095°01'0 0.0
2018-Jun-15 10:30N 29°37' W 095°01'0 0.0
2018-Jun-15 09:54N 29°37' W 095°01'0 1.0
2018-Jun-15 09:31N 29°37' W 095°01'0 0.0
2018-Jun-15 09:01N 29°37' W 095°01'0 0.0
2018-Jun-15 08:30N 29°37' W 095°01'0 0.0
2018-Jun-15 07:57N 29°37' W 095°01'0 0.0
2018-Jun-15 07:27N 29°37' W 095°01'0 0.0
2018-Jun-15 07:00N 29°37' W 095°01'0 0.0
2018-Jun-15 06:21N 29°37' W 095°01'0 0.0
2018-Jun-15 06:00N 29°37' W 095°01'0 0.0
2018-Jun-15 05:27N 29°37' W 095°01'0 0.0
2018-Jun-15 05:00N 29°37' W 095°01'0 0.0
2018-Jun-15 04:30N 29°37' W 095°01'0 0.0
2018-Jun-15 03:57N 29°37' W 095°01'0 0.0
2018-Jun-15 03:30N 29°37' W 095°01'0 0.6
2018-Jun-15 03:00N 29°37' W 095°01'0 0.3
2018-Jun-15 02:29N 29°37' W 095°01'0 0.0
2018-Jun-15 02:00N 29°37' W 095°01'0 0.4
2018-Jun-15 01:28N 29°37' W 095°02'0 0.0
2018-Jun-15 00:58N 29°37' W 095°02'0 0.0
2018-Jun-15 00:28N 29°37' W 095°02'0 0.0
2018-Jun-15 00:01N 29°37' W 095°02'0 0.0
2018-Jun-14 23:31N 29°37' W 095°02'0 0.0
2018-Jun-14 23:01N 29°37' W 095°02'0 0.0
2018-Jun-14 22:30N 29°37' W 095°02'0 0.0
2018-Jun-14 22:00N 29°37' W 095°02'0 0.0
2018-Jun-14 21:30N 29°37' W 095°02'0 0.6
2018-Jun-14 20:59N 29°37' W 095°01'1 1.5
2018-Jun-14 20:26N 29°37' W 095°00'1 1.6
2018-Jun-14 19:52N 29°37' W 095°02'0 0.0
2018-Jun-14 19:25N 29°37' W 095°02'0 0.8
2018-Jun-14 19:00N 29°37' W 095°01'0 0.0
2018-Jun-14 18:30N 29°37' W 095°01'0 0.1
2018-Jun-14 18:00N 29°37' W 095°01'0 0.7
2018-Jun-14 17:29N 29°37' W 095°01'0 0.0
2018-Jun-14 16:55N 29°37' W 095°01'0 0.0
2018-Jun-14 16:25N 29°37' W 095°01'0 0.0
2018-Jun-14 15:55N 29°37' W 095°01'0 0.0
2018-Jun-14 15:28N 29°37' W 095°01'0 0.0
2018-Jun-14 14:58N 29°37' W 095°01'0 0.0
2018-Jun-14 14:28N 29°37' W 095°01'0 0.0
2018-Jun-14 13:57N 29°37' W 095°01'4 7.7
2018-Jun-14 13:26N 29°36' W 094°57'810.8
2018-Jun-14 12:44N 29°30' W 094°52'711.9
2018-Jun-14 12:06N 29°23' W 094°48'112.0
2018-Jun-14 11:59N 29°22' W 094°48'3 5.3
2018-Jun-14 11:30N 29°19' W 094°47'1 1.6
2018-Jun-14 10:43N 29°20' W 094°46'1 1.6
2018-Jun-14 09:50N 29°19' W 094°47'3 7.3
2018-Jun-14 09:30N 29°21' W 094°48'13 9.5
2018-Jun-14 08:07N 29°33' W 094°55'1 9.9
2018-Jun-14 07:59N 29°34' W 094°55'4 8.2
2018-Jun-14 07:30N 29°37' W 094°59'2 3.5
2018-Jun-14 06:56N 29°37' W 095°01'0 0.0
2018-Jun-14 06:20N 29°37' W 095°01'0 0.0
2018-Jun-14 05:50N 29°37' W 095°01'0 0.0
2018-Jun-14 05:26N 29°37' W 095°01'0 0.0
2018-Jun-14 04:56N 29°37' W 095°01'0 0.9
2018-Jun-14 04:30N 29°37' W 095°02'0 0.1
2018-Jun-14 03:59N 29°37' W 095°02'1 1.5
2018-Jun-14 03:29N 29°37' W 095°01'1 1.2
2018-Jun-14 02:53N 29°36' W 095°01'0 0.0
2018-Jun-14 02:29N 29°36' W 095°01'0 0.0
2018-Jun-14 01:44N 29°36' W 095°01'0 0.0
2018-Jun-14 01:23N 29°36' W 095°01'0 0.0
2018-Jun-14 00:59N 29°36' W 095°01'0 0.0
2018-Jun-14 00:19N 29°36' W 095°01'0 0.3
2018-Jun-14 00:00N 29°37' W 095°01'1 1.1
2018-Jun-13 23:30N 29°37' W 095°01'0 0.7
2018-Jun-13 22:55N 29°37' W 095°00'0 0.0
2018-Jun-13 22:28N 29°37' W 095°00'0 0.0
2018-Jun-13 21:58N 29°37' W 095°00'3 5.6
2018-Jun-13 21:25N 29°36' W 094°57'1610.3
2018-Jun-13 19:51N 29°22' W 094°48'3 7.0
2018-Jun-13 19:26N 29°19' W 094°47'0 0.0
2018-Jun-13 19:00N 29°19' W 094°47'0 0.0
2018-Jun-13 18:30N 29°19' W 094°47'0 0.0
2018-Jun-13 18:00N 29°19' W 094°47'0 0.0
2018-Jun-13 17:30N 29°19' W 094°47'0 0.0
2018-Jun-13 17:00N 29°19' W 094°47'0 0.0
2018-Jun-13 16:30N 29°19' W 094°47'0 0.0
2018-Jun-13 16:00N 29°19' W 094°47'1 1.3
2018-Jun-13 15:30N 29°19' W 094°48'0 0.0
2018-Jun-13 14:58N 29°19' W 094°48'0 0.0
2018-Jun-13 14:22N 29°19' W 094°48'0 0.0
2018-Jun-13 14:00N 29°19' W 094°48'0 0.1
2018-Jun-13 13:27N 29°19' W 094°48'1 2.6
2018-Jun-13 13:00N 29°20' W 094°47'4 8.3
2018-Jun-13 12:30N 29°23' W 094°49'11 9.6
2018-Jun-13 11:21N 29°33' W 094°55'4 9.3
2018-Jun-13 10:56N 29°36' W 094°57'5 9.1
2018-Jun-13 10:21N 29°41' W 094°59'  

Dump ship's entire track history